createdAt,value
2017-05-21T00:00:52.261Z,90.88
2017-05-21T00:02:02.528Z,90.83
2017-05-21T00:03:12.169Z,91.36
2017-05-21T00:04:22.122Z,91.55
2017-05-21T00:05:32.077Z,91.74
2017-05-21T00:06:42.345Z,91.83
2017-05-21T00:07:52.613Z,90.69
2017-05-21T00:09:02.878Z,91.27
2017-05-21T00:10:12.835Z,91.07
2017-05-21T00:11:23.148Z,91.27
2017-05-21T00:12:32.783Z,91.27
2017-05-21T00:13:43.052Z,90.98
2017-05-21T00:14:53.001Z,91.12
2017-05-21T00:16:03.268Z,91.07
2017-05-21T00:17:12.890Z,90.98
2017-05-21T00:18:23.154Z,90.88
2017-05-21T00:19:32.171Z,90.88
2017-05-21T00:20:42.433Z,91.12
2017-05-21T00:21:52.386Z,90.98
2017-05-21T00:23:02.649Z,90.41
2017-05-21T00:24:12.918Z,91.17
2017-05-21T00:25:23.188Z,91.93
2017-05-21T00:26:33.151Z,92.22
2017-05-21T00:27:43.104Z,92.98
2017-05-21T00:28:53.367Z,94.41
2017-05-21T00:30:03.010Z,94.41
2017-05-21T00:31:12.337Z,93.65
2017-05-21T00:32:22.322Z,92.79
2017-05-21T00:33:31.964Z,92.88
2017-05-21T00:34:41.622Z,93.27
2017-05-21T00:35:51.877Z,93.65
2017-05-21T00:37:02.144Z,93.98
2017-05-21T00:38:12.095Z,95.41
2017-05-21T00:39:22.113Z,96.27
2017-05-21T00:40:32.072Z,96.08
2017-05-21T00:41:41.406Z,95.79
2017-05-21T00:42:51.678Z,95.51
2017-05-21T00:44:01.636Z,95.61
2017-05-21T00:45:10.961Z,96.27
2017-05-21T00:46:20.915Z,95.89
2017-05-21T00:47:31.171Z,95.79
2017-05-21T00:48:41.125Z,95.79
2017-05-21T00:49:51.386Z,95.22
2017-05-21T00:51:01.655Z,95.32
2017-05-21T00:52:11.290Z,95.79
2017-05-21T00:53:21.242Z,95.51
2017-05-21T00:54:31.506Z,95.41
2017-05-21T00:55:41.770Z,94.84
2017-05-21T00:56:51.715Z,95.41
2017-05-21T00:58:01.670Z,95.61
2017-05-21T00:59:11.302Z,95.41
2017-05-21T01:00:21.254Z,94.84
2017-05-21T01:01:31.519Z,94.74
2017-05-21T01:02:41.786Z,95.22
2017-05-21T01:03:52.115Z,95.61
2017-05-21T01:05:02.097Z,95.51
2017-05-21T01:06:11.736Z,95.51
2017-05-21T01:07:21.723Z,95.12
2017-05-21T01:08:31.674Z,95.32
2017-05-21T01:09:41.943Z,95.41
2017-05-21T01:10:52.205Z,95.32
2017-05-21T01:12:02.467Z,95.61
2017-05-21T01:13:12.104Z,95.7
2017-05-21T01:14:22.367Z,95.51
2017-05-21T01:15:32.634Z,95.22
2017-05-21T01:16:42.270Z,95.32
2017-05-21T01:17:52.539Z,95.32
2017-05-21T01:19:02.812Z,95.61
2017-05-21T01:20:13.077Z,94.84
2017-05-21T01:21:23.340Z,94.74
2017-05-21T01:22:33.610Z,95.12
2017-05-21T01:23:43.877Z,95.7
2017-05-21T01:24:54.140Z,95.22
2017-05-21T01:26:04.406Z,95.41
2017-05-21T01:27:14.037Z,95.89
2017-05-21T01:28:23.674Z,95.61
2017-05-21T01:29:33.940Z,95.89
2017-05-21T01:30:44.204Z,96.08
2017-05-21T01:31:54.155Z,96.84
2017-05-21T01:33:04.418Z,97.03
2017-05-21T01:34:13.740Z,96.08
2017-05-21T01:35:23.694Z,96.17
2017-05-21T01:36:33.645Z,96.65
2017-05-21T01:37:43.621Z,96.46
2017-05-21T01:38:53.882Z,95.89
2017-05-21T01:40:04.149Z,95.98
2017-05-21T01:41:13.787Z,96.65
2017-05-21T01:42:23.422Z,96.75
2017-05-21T01:43:33.379Z,97.13
2017-05-21T01:44:43.652Z,97.61
2017-05-21T01:45:53.916Z,98.36
2017-05-21T01:47:04.187Z,98.18
2017-05-21T01:48:13.825Z,97.7
2017-05-21T01:49:23.786Z,97.46
2017-05-21T01:50:34.053Z,98.03
2017-05-21T01:51:43.695Z,97.56
2017-05-21T01:52:53.960Z,98.32
2017-05-21T01:54:03.914Z,98.7
2017-05-21T01:55:13.549Z,99.08
2017-05-21T01:56:23.812Z,98.79
2017-05-21T01:57:33.764Z,98.99
2017-05-21T01:58:43.723Z,98.99
2017-05-21T01:59:53.359Z,98.99
2017-05-21T02:01:03.310Z,98.89
2017-05-21T02:03:44.642Z,98.03
2017-05-21T02:04:54.591Z,98.32
2017-05-21T02:06:04.229Z,98.32
2017-05-21T02:07:14.176Z,98.41
2017-05-21T02:08:27.639Z,98.13
2017-05-21T02:09:37.591Z,98.6
2017-05-21T02:10:47.227Z,98.99
2017-05-21T02:11:57.492Z,98.51
2017-05-21T02:13:07.134Z,99.08
2017-05-21T02:14:17.398Z,99.18
2017-05-21T02:15:27.670Z,98.6
2017-05-21T02:16:37.307Z,98.6
2017-05-21T02:17:47.573Z,98.51
2017-05-21T02:18:57.842Z,98.32
2017-05-21T02:20:08.066Z,98.85
2017-05-21T02:21:18.015Z,98.99
2017-05-21T02:22:27.968Z,98.99
2017-05-21T02:23:37.918Z,99.32
2017-05-21T02:24:47.944Z,98.75
2017-05-21T02:25:57.891Z,99.22
2017-05-21T02:27:08.160Z,99.32
2017-05-21T02:28:17.476Z,99.13
2017-05-21T02:29:27.426Z,99.8
2017-05-21T02:30:36.748Z,99.99
2017-05-21T02:31:47.009Z,99.55
2017-05-21T02:32:57.271Z,99.27
2017-05-21T02:34:07.526Z,98.99
2017-05-21T02:35:17.178Z,98.99
2017-05-21T02:36:26.812Z,99.37
2017-05-21T02:37:36.133Z,99.18
2017-05-21T02:38:46.400Z,98.89
2017-05-21T02:39:56.353Z,98.94
2017-05-21T02:41:06.617Z,99.75
2017-05-21T02:42:16.571Z,98.99
2017-05-21T02:43:26.220Z,98.89
2017-05-21T02:44:35.229Z,99.13
2017-05-21T02:45:44.866Z,99.55
2017-05-21T02:46:55.129Z,99.8
2017-05-21T02:48:05.089Z,99.99
2017-05-21T02:49:15.044Z,99.6
2017-05-21T02:50:25.311Z,99.41
2017-05-21T02:51:34.944Z,99.41
2017-05-21T02:52:44.895Z,99.13
2017-05-21T02:53:55.168Z,99.41
2017-05-21T02:55:05.116Z,99.6
2017-05-21T02:56:14.753Z,99.99
2017-05-21T02:57:24.713Z,99.99
2017-05-21T02:58:34.983Z,99.99
2017-05-21T02:59:44.935Z,99.99
2017-05-21T03:00:54.942Z,99.99
2017-05-21T03:02:04.937Z,99.99
2017-05-21T03:03:14.574Z,99.99
2017-05-21T03:04:24.851Z,99.99
2017-05-21T03:05:34.511Z,99.99
2017-05-21T03:06:44.781Z,99.99
2017-05-21T03:07:55.043Z,99.99
2017-05-21T03:09:05.002Z,99.99
2017-05-21T03:10:14.951Z,99.99
2017-05-21T03:11:24.900Z,99.99
2017-05-21T03:12:34.851Z,99.99
2017-05-21T03:13:45.126Z,99.99
2017-05-21T03:14:55.396Z,99.99
2017-05-21T03:16:05.351Z,99.99
2017-05-21T03:17:14.674Z,99.99
2017-05-21T03:18:24.630Z,99.99
2017-05-21T03:19:34.898Z,99.99
2017-05-21T03:20:45.168Z,99.99
2017-05-21T03:21:55.430Z,99.99
2017-05-21T03:23:05.384Z,99.99
2017-05-21T03:24:15.655Z,99.99
2017-05-21T03:25:25.916Z,99.99
2017-05-21T03:26:35.871Z,99.99
2017-05-21T03:27:45.516Z,99.99
2017-05-21T03:28:55.786Z,99.99
2017-05-21T03:30:06.046Z,99.99
2017-05-21T03:31:15.993Z,99.99
2017-05-21T03:32:25.945Z,99.99
2017-05-21T03:33:36.206Z,99.99
2017-05-21T03:34:46.474Z,99.99
2017-05-21T03:35:56.427Z,99.99
2017-05-21T03:37:06.687Z,99.99
2017-05-21T03:38:16.326Z,99.99
2017-05-21T03:39:25.962Z,99.99
2017-05-21T03:40:35.922Z,99.99
2017-05-21T03:41:45.927Z,99.99
2017-05-21T03:42:56.203Z,99.99
2017-05-21T03:44:06.475Z,99.99
2017-05-21T03:45:16.111Z,99.99
2017-05-21T03:46:26.064Z,99.99
2017-05-21T03:47:36.330Z,99.99
2017-05-21T03:48:46.602Z,99.99
2017-05-21T03:49:56.870Z,99.99
2017-05-21T03:51:07.136Z,99.99
2017-05-21T03:52:17.086Z,99.99
2017-05-21T03:53:26.412Z,99.99
2017-05-21T03:54:36.670Z,99.99
2017-05-21T03:55:46.617Z,99.99
2017-05-21T03:56:56.565Z,99.99
2017-05-21T03:58:06.828Z,99.99
2017-05-21T03:59:17.097Z,99.99
2017-05-21T04:00:26.734Z,99.99
2017-05-21T04:01:36.679Z,99.99
2017-05-21T04:02:46.631Z,99.99
2017-05-21T04:03:56.268Z,99.99
2017-05-21T04:05:06.537Z,99.99
2017-05-21T04:06:16.796Z,99.99
2017-05-21T04:07:26.747Z,99.99
2017-05-21T04:08:36.697Z,99.99
2017-05-21T04:09:46.343Z,99.99
2017-05-21T04:10:56.610Z,99.99
2017-05-21T04:12:06.890Z,99.99
2017-05-21T04:13:16.521Z,99.99
2017-05-21T04:14:26.787Z,99.99
2017-05-21T04:15:36.740Z,99.99
2017-05-21T04:16:46.683Z,99.99
2017-05-21T04:17:56.636Z,99.99
2017-05-21T04:19:06.594Z,99.99
2017-05-21T04:20:16.243Z,99.99
2017-05-21T04:21:26.193Z,99.99
2017-05-21T04:22:36.141Z,99.99
2017-05-21T04:23:46.088Z,99.99
2017-05-21T04:24:55.411Z,99.99
2017-05-21T04:26:05.671Z,99.99
2017-05-21T04:27:15.947Z,99.99
2017-05-21T04:28:26.211Z,99.99
2017-05-21T04:29:36.159Z,99.99
2017-05-21T04:30:45.794Z,99.99
2017-05-21T04:31:56.058Z,99.99
2017-05-21T04:33:06.318Z,99.99
2017-05-21T04:34:16.593Z,99.99
2017-05-21T04:35:26.860Z,99.99
2017-05-21T04:36:36.821Z,99.99
2017-05-21T04:37:47.086Z,99.99
2017-05-21T04:38:57.356Z,99.99
2017-05-21T04:40:07.617Z,99.99
2017-05-21T04:41:17.275Z,99.99
2017-05-21T04:42:27.223Z,99.99
2017-05-21T04:43:36.863Z,99.99
2017-05-21T04:44:46.572Z,99.99
2017-05-21T04:45:56.838Z,99.99
2017-05-21T04:47:06.785Z,99.99
2017-05-21T04:48:16.419Z,99.99
2017-05-21T04:49:25.745Z,99.99
2017-05-21T04:50:35.062Z,99.99
2017-05-21T04:51:44.722Z,99.99
2017-05-21T04:52:54.669Z,99.99
2017-05-21T04:54:04.932Z,99.99
2017-05-21T04:55:14.889Z,99.99
2017-05-21T04:56:24.519Z,99.99
2017-05-21T04:57:34.154Z,99.99
2017-05-21T04:58:43.494Z,99.99
2017-05-21T04:59:53.815Z,99.99
2017-05-21T05:01:03.767Z,99.99
2017-05-21T05:02:13.453Z,99.99
2017-05-21T05:03:23.727Z,99.99
2017-05-21T05:04:33.371Z,99.99
2017-05-21T05:05:43.316Z,99.99
2017-05-21T05:06:53.584Z,99.99
2017-05-21T05:08:03.536Z,99.99
2017-05-21T05:09:13.796Z,99.99
2017-05-21T05:10:24.057Z,99.99
2017-05-21T05:11:34.327Z,99.99
2017-05-21T05:12:44.588Z,99.99
2017-05-21T05:13:54.854Z,99.99
2017-05-21T05:15:04.809Z,99.99
2017-05-21T05:16:14.764Z,99.99
2017-05-21T05:17:24.713Z,99.99
2017-05-21T05:18:34.976Z,99.99
2017-05-21T05:19:44.611Z,99.99
2017-05-21T05:20:54.872Z,99.99
2017-05-21T05:22:05.140Z,99.99
2017-05-21T05:23:14.775Z,99.99
2017-05-21T05:24:25.044Z,99.99
2017-05-21T05:25:35.313Z,99.99
2017-05-21T05:26:44.950Z,99.99
2017-05-21T05:27:55.267Z,99.99
2017-05-21T05:29:05.534Z,99.99
2017-05-21T05:30:15.501Z,99.99
2017-05-21T05:31:25.458Z,99.99
2017-05-21T05:32:35.723Z,99.99
2017-05-21T05:33:45.998Z,99.99
2017-05-21T05:34:56.262Z,99.99
2017-05-21T05:36:06.212Z,99.99
2017-05-21T05:37:16.480Z,99.99
2017-05-21T05:38:26.743Z,99.99
2017-05-21T05:39:36.377Z,99.99
2017-05-21T05:40:46.640Z,99.99
2017-05-21T05:41:56.655Z,99.99
2017-05-21T05:43:06.925Z,99.99
2017-05-21T05:44:16.877Z,99.99
2017-05-21T05:45:26.508Z,99.99
2017-05-21T05:46:36.144Z,99.99
2017-05-21T05:47:46.425Z,99.99
2017-05-21T05:48:56.694Z,99.99
2017-05-21T05:50:06.960Z,99.99
2017-05-21T05:51:16.287Z,99.99
2017-05-21T05:52:26.239Z,99.99
2017-05-21T05:53:35.874Z,99.99
2017-05-21T05:54:45.829Z,99.99
2017-05-21T05:55:56.094Z,99.99
2017-05-21T05:57:06.367Z,99.99
2017-05-21T05:58:16.004Z,99.99
2017-05-21T05:59:25.705Z,99.99
2017-05-21T06:00:35.657Z,99.99
2017-05-21T06:01:45.604Z,99.99
2017-05-21T06:02:55.872Z,99.99
2017-05-21T06:04:06.137Z,99.99
2017-05-21T06:05:15.774Z,99.99
2017-05-21T06:06:25.736Z,99.99
2017-05-21T06:07:35.061Z,99.99
2017-05-21T06:08:45.344Z,99.99
2017-05-21T06:09:55.611Z,99.99
2017-05-21T06:11:05.879Z,99.99
2017-05-21T06:12:15.830Z,99.99
2017-05-21T06:13:25.488Z,99.99
2017-05-21T06:14:35.162Z,99.99
2017-05-21T06:15:45.110Z,99.99
2017-05-21T06:16:55.059Z,99.99
2017-05-21T06:18:05.326Z,99.99
2017-05-21T06:19:15.280Z,99.99
2017-05-21T06:20:25.234Z,99.99
2017-05-21T06:21:34.559Z,99.99
2017-05-21T06:22:44.515Z,99.99
2017-05-21T06:23:54.785Z,99.99
2017-05-21T06:25:05.058Z,99.99
2017-05-21T06:26:15.324Z,99.99
2017-05-21T06:27:25.587Z,99.99
2017-05-21T06:28:35.535Z,99.99
2017-05-21T06:29:45.489Z,99.99
2017-05-21T06:30:55.440Z,99.99
2017-05-21T06:32:05.702Z,99.99
2017-05-21T06:33:15.345Z,99.99
2017-05-21T06:34:25.619Z,99.99
2017-05-21T06:35:35.885Z,99.99
2017-05-21T06:36:45.522Z,99.99
2017-05-21T06:37:55.781Z,99.99
2017-05-21T06:39:06.046Z,99.99
2017-05-21T06:40:16.322Z,99.99
2017-05-21T06:41:26.266Z,99.99
2017-05-21T06:42:36.218Z,99.99
2017-05-21T06:43:45.867Z,99.99
2017-05-21T06:44:55.503Z,99.99
2017-05-21T06:46:05.764Z,99.99
2017-05-21T06:47:16.027Z,99.99
2017-05-21T06:48:25.988Z,99.99
2017-05-21T06:49:35.939Z,99.99
2017-05-21T06:50:46.214Z,99.99
2017-05-21T06:51:56.161Z,99.99
2017-05-21T06:53:06.420Z,99.99
2017-05-21T06:54:16.687Z,99.99
2017-05-21T06:55:26.957Z,99.99
2017-05-21T06:56:36.907Z,99.99
2017-05-21T06:57:46.854Z,99.99
2017-05-21T06:58:56.497Z,99.99
2017-05-21T07:00:06.454Z,99.99
2017-05-21T07:01:16.402Z,99.99
2017-05-21T07:02:26.351Z,99.99
2017-05-21T07:03:36.617Z,99.99
2017-05-21T07:04:46.932Z,99.99
2017-05-21T07:05:56.881Z,99.99
2017-05-21T07:07:07.135Z,99.99
2017-05-21T07:08:17.088Z,99.99
2017-05-21T07:09:27.354Z,99.66
2017-05-21T07:10:37.309Z,99.99
2017-05-21T07:11:47.576Z,99.75
2017-05-21T07:12:57.213Z,99.95
2017-05-21T07:14:07.476Z,99.75
2017-05-21T07:15:17.746Z,99.46
2017-05-21T07:16:27.697Z,99.32
2017-05-21T07:17:37.957Z,99.04
2017-05-21T07:18:46.978Z,99.52
2017-05-21T07:19:56.930Z,99.37
2017-05-21T07:21:07.202Z,98.94
2017-05-21T07:22:17.471Z,98.85
2017-05-21T07:23:27.418Z,99.13
2017-05-21T07:24:37.683Z,99.32
2017-05-21T07:25:47.952Z,99.13
2017-05-21T07:26:57.905Z,98.75
2017-05-21T07:28:08.169Z,99.32
2017-05-21T07:29:18.427Z,99.13
2017-05-21T07:30:28.382Z,98.66
2017-05-21T07:31:38.332Z,99.04
2017-05-21T07:32:48.593Z,99.13
2017-05-21T07:33:58.857Z,98.47
2017-05-21T07:35:09.121Z,98.47
2017-05-21T07:36:18.764Z,98.08
2017-05-21T07:37:28.402Z,99.04
2017-05-21T07:38:38.347Z,99.23
2017-05-21T07:39:48.013Z,98.47
2017-05-21T07:40:57.963Z,98.47
2017-05-21T07:42:08.225Z,99.23
2017-05-21T07:43:17.866Z,98.56
2017-05-21T07:44:27.827Z,98.27
2017-05-21T07:45:37.777Z,98.37
2017-05-21T07:46:47.412Z,98.08
2017-05-21T07:47:57.050Z,98.47
2017-05-21T07:49:07.316Z,97.8
2017-05-21T07:50:17.269Z,97.8
2017-05-21T07:51:27.531Z,97.8
2017-05-21T07:52:37.503Z,98.37
2017-05-21T07:53:47.455Z,98.37
2017-05-21T07:54:57.408Z,98.37
2017-05-21T07:56:07.680Z,98.27
2017-05-21T07:57:17.995Z,98.47
2017-05-21T07:58:28.261Z,98.37
2017-05-21T07:59:37.906Z,98.27
2017-05-21T08:00:47.859Z,98.56
2017-05-21T08:01:57.181Z,98.56
2017-05-21T08:03:07.451Z,98.18
2017-05-21T08:04:17.413Z,98.47
2017-05-21T08:05:27.736Z,98.56
2017-05-21T08:06:38.013Z,98.18
2017-05-21T08:07:47.965Z,97.61
2017-05-21T08:08:58.229Z,97.99
2017-05-21T08:10:07.548Z,98.56
2017-05-21T08:11:17.191Z,97.89
2017-05-21T08:12:27.155Z,97.61
2017-05-21T08:13:37.107Z,98.08
2017-05-21T08:14:47.382Z,97.75
2017-05-21T08:15:57.650Z,97.8
2017-05-21T08:17:07.397Z,97.66
2017-05-21T08:18:17.351Z,97.66
2017-05-21T08:19:27.308Z,97.66
2017-05-21T08:20:37.263Z,97.99
2017-05-21T08:21:47.533Z,97.75
2017-05-21T08:22:57.520Z,96.89
2017-05-21T08:24:07.464Z,96.7
2017-05-21T08:25:17.415Z,96.42
2017-05-21T08:26:27.684Z,97.08
2017-05-21T08:27:37.983Z,97.85
2017-05-21T08:28:47.623Z,97.27
2017-05-21T08:29:57.576Z,96.98
2017-05-21T08:31:07.521Z,97.08
2017-05-21T08:32:17.790Z,96.98
2017-05-21T08:33:28.057Z,96.51
2017-05-21T08:34:37.701Z,97.18
2017-05-21T08:35:47.649Z,96.51
2017-05-21T08:36:57.600Z,97.08
2017-05-21T08:38:07.922Z,97.22
2017-05-21T08:39:18.463Z,96.89
2017-05-21T08:40:28.412Z,96.61
2017-05-21T08:41:38.052Z,96.61
2017-05-21T08:42:48.004Z,96.61
2017-05-21T08:43:57.956Z,96.89
2017-05-21T08:45:08.230Z,96.8
2017-05-21T08:46:17.870Z,96.8
2017-05-21T08:47:27.508Z,96.7
2017-05-21T08:48:37.464Z,96.7
2017-05-21T08:49:47.781Z,96.8
2017-05-21T08:50:57.417Z,96.89
2017-05-21T08:52:07.681Z,96.61
2017-05-21T08:53:17.319Z,96.13
2017-05-21T08:54:26.965Z,95.94
2017-05-21T08:55:36.917Z,95.75
2017-05-21T08:56:46.864Z,96.17
2017-05-21T08:57:56.817Z,95.84
2017-05-21T08:59:07.092Z,95.84
2017-05-21T09:00:17.423Z,95.41
2017-05-21T09:01:27.376Z,95.75
2017-05-21T09:02:37.329Z,95.84
2017-05-21T09:03:46.969Z,95.56
2017-05-21T09:04:57.239Z,95.36
2017-05-21T09:06:07.511Z,96.03
2017-05-21T09:07:17.464Z,95.75
2017-05-21T09:08:27.729Z,95.65
2017-05-21T09:09:37.378Z,95.56
2017-05-21T09:10:47.339Z,95.75
2017-05-21T09:11:57.295Z,95.56
2017-05-21T09:13:06.931Z,95.46
2017-05-21T09:14:17.204Z,95.75
2017-05-21T09:15:26.848Z,95.75
2017-05-21T09:16:36.806Z,95.94
2017-05-21T09:17:47.067Z,95.65
2017-05-21T09:18:57.020Z,95.56
2017-05-21T09:20:06.346Z,95.27
2017-05-21T09:21:16.622Z,95.75
2017-05-21T09:22:26.894Z,94.98
2017-05-21T09:23:36.220Z,95.41
2017-05-21T09:24:46.486Z,95.41
2017-05-21T09:25:55.816Z,95.61
2017-05-21T09:27:05.147Z,95.51
2017-05-21T09:28:15.097Z,95.22
2017-05-21T09:29:24.753Z,95.22
2017-05-21T09:30:35.020Z,95.36
2017-05-21T09:31:44.383Z,95.12
2017-05-21T09:32:54.650Z,95.75
2017-05-21T09:34:04.602Z,95.61
2017-05-21T09:35:14.555Z,95.46
2017-05-21T09:36:24.190Z,94.98
2017-05-21T09:37:33.822Z,95.17
2017-05-21T09:38:43.467Z,95.61
2017-05-21T09:39:52.796Z,95.79
2017-05-21T09:41:03.070Z,95.12
2017-05-21T09:42:13.331Z,95.32
2017-05-21T09:43:23.595Z,95.12
2017-05-21T09:44:33.234Z,95.22
2017-05-21T09:45:43.512Z,95.51
2017-05-21T09:46:53.466Z,95.22
2017-05-21T09:48:03.417Z,94.46
2017-05-21T09:49:13.683Z,94.36
2017-05-21T09:50:23.635Z,94.51
2017-05-21T09:51:32.958Z,94.7
2017-05-21T09:52:43.226Z,94.51
2017-05-21T09:53:52.244Z,94.22
2017-05-21T09:55:02.206Z,94.6
2017-05-21T09:56:12.475Z,93.74
2017-05-21T09:57:22.420Z,94.02
2017-05-21T09:58:32.368Z,93.55
2017-05-21T09:59:41.693Z,94.02
2017-05-21T10:00:51.645Z,93.84
2017-05-21T10:02:01.906Z,93.26
2017-05-21T10:03:12.176Z,93.36
2017-05-21T10:04:22.449Z,93.79
2017-05-21T10:05:32.092Z,93.69
2017-05-21T10:06:41.779Z,93.21
2017-05-21T10:07:51.420Z,92.93
2017-05-21T10:09:01.062Z,92.74
2017-05-21T10:10:11.338Z,91.88
2017-05-21T10:11:21.293Z,91.68
2017-05-21T10:12:31.245Z,91.59
2017-05-21T10:13:41.205Z,92.11
2017-05-21T10:14:50.850Z,91.16
2017-05-21T10:16:00.801Z,91.16
2017-05-21T10:17:10.753Z,90.77
2017-05-21T10:18:20.394Z,89.86
2017-05-21T10:19:30.352Z,89.67
2017-05-21T10:20:39.991Z,89.76
2017-05-21T10:21:49.943Z,89.58
2017-05-21T10:22:59.267Z,89.58
2017-05-21T10:24:09.542Z,89.14
2017-05-21T10:25:19.814Z,89.23
2017-05-21T10:26:29.459Z,89.43
2017-05-21T10:27:39.739Z,89.23
2017-05-21T10:28:49.384Z,89.33
2017-05-21T10:29:59.655Z,88.66
2017-05-21T10:31:09.641Z,88.66
2017-05-21T10:32:19.597Z,88.85
2017-05-21T10:33:29.549Z,88.09
2017-05-21T10:34:39.500Z,88.66
2017-05-21T10:35:48.516Z,89.04
2017-05-21T10:36:58.475Z,88.66
2017-05-21T10:38:08.426Z,88.62
2017-05-21T10:39:17.752Z,89.86
2017-05-21T10:40:27.702Z,89.95
2017-05-21T10:41:37.340Z,90.05
2017-05-21T10:42:47.612Z,90.39
2017-05-21T10:43:57.568Z,90.39
2017-05-21T10:45:07.523Z,90.39
2017-05-21T10:46:17.470Z,90.3
2017-05-21T10:47:27.735Z,90.87
2017-05-21T10:48:38.036Z,91.16
2017-05-21T10:49:47.988Z,91.16
2017-05-21T10:50:57.949Z,91.25
2017-05-21T10:52:07.583Z,91.83
2017-05-21T10:53:17.538Z,92.11
2017-05-21T10:54:27.494Z,92.21
2017-05-21T10:55:37.135Z,91.25
2017-05-21T10:56:47.087Z,91.16
2017-05-21T10:57:57.108Z,91.83
2017-05-21T10:59:07.073Z,91.16
2017-05-21T11:00:17.027Z,90.96
2017-05-21T11:01:26.983Z,90.96
2017-05-21T11:02:36.931Z,90.58
2017-05-21T11:03:46.893Z,90.67
2017-05-21T11:04:56.535Z,91.16
2017-05-21T11:06:06.802Z,90.48
2017-05-21T11:07:17.070Z,90.48
2017-05-21T11:08:27.331Z,90.3
2017-05-21T11:09:36.971Z,90.3
2017-05-21T11:10:46.342Z,89.43
2017-05-21T11:11:56.292Z,90.05
2017-05-21T11:13:06.247Z,89.48
2017-05-21T11:14:15.895Z,89.67
2017-05-21T11:15:26.163Z,89.38
2017-05-21T11:16:36.430Z,89.48
2017-05-21T11:17:46.694Z,87.95
2017-05-21T11:18:56.653Z,88.33
2017-05-21T11:20:06.919Z,88.52
2017-05-21T11:21:17.187Z,88.81
2017-05-21T11:22:27.135Z,89.19
2017-05-21T11:23:37.095Z,89.19
2017-05-21T11:24:46.945Z,89.76
2017-05-21T11:25:56.586Z,89.95
2017-05-21T11:27:06.854Z,90.05
2017-05-21T11:28:16.816Z,89.58
2017-05-21T11:29:27.098Z,89.72
2017-05-21T11:30:37.056Z,90.58
2017-05-21T11:31:46.695Z,90.24
2017-05-21T11:32:56.644Z,90.24
2017-05-21T11:34:06.909Z,90.96
2017-05-21T11:35:16.875Z,89.95
2017-05-21T11:36:27.146Z,90.63
2017-05-21T11:37:36.785Z,91.39
2017-05-21T11:38:46.739Z,90.44
2017-05-21T11:39:56.770Z,90.39
2017-05-21T11:41:07.038Z,90
2017-05-21T11:42:17.304Z,88.13
2017-05-21T11:43:27.576Z,87.79
2017-05-21T11:44:37.221Z,86.45
2017-05-21T11:45:47.177Z,86.21
2017-05-21T11:46:56.815Z,85.58
2017-05-21T11:48:06.802Z,84.08
2017-05-21T11:49:16.441Z,82.92
2017-05-21T11:50:26.719Z,81.12
2017-05-21T11:51:36.992Z,80.73
2017-05-21T11:52:46.321Z,79.9
2017-05-21T11:53:56.608Z,79.43
2017-05-21T11:55:06.565Z,78.21
2017-05-21T11:56:16.527Z,75.99
2017-05-21T11:57:26.806Z,75.61
2017-05-21T11:58:36.770Z,75.13
2017-05-21T11:59:46.421Z,75.71
2017-05-21T12:00:56.697Z,75.42
2017-05-21T12:02:06.976Z,74.65
2017-05-21T12:03:16.939Z,75.28
2017-05-21T12:04:27.228Z,74.45
2017-05-21T12:05:37.197Z,75.28
2017-05-21T12:06:46.842Z,75.28
2017-05-21T12:07:56.800Z,74.3
2017-05-21T12:09:07.080Z,73.47
2017-05-21T12:10:17.039Z,71.96
2017-05-21T12:11:27.313Z,69.52
2017-05-21T12:12:37.279Z,68.68
2017-05-21T12:13:47.557Z,67.4
2017-05-21T12:14:57.208Z,66.69
2017-05-21T12:16:07.483Z,65.82
2017-05-21T12:17:17.127Z,64.62
2017-05-21T12:18:27.405Z,63.4
2017-05-21T12:19:37.740Z,63.01
2017-05-21T12:20:48.015Z,62.16
2017-05-21T12:21:58.294Z,61.55
2017-05-21T12:23:08.259Z,58.95
2017-05-21T12:24:18.535Z,58.69
2017-05-21T12:25:28.821Z,57.26
2017-05-21T12:26:38.784Z,56.32
2017-05-21T12:27:48.129Z,55.57
2017-05-21T12:28:58.098Z,56.86
2017-05-21T12:30:08.064Z,55.5
2017-05-21T12:31:18.350Z,56.25
2017-05-21T12:32:28.621Z,53.65
2017-05-21T12:33:38.276Z,49.39
2017-05-21T12:34:47.304Z,50.75
2017-05-21T12:35:56.971Z,50.56
2017-05-21T12:37:07.253Z,51.56
2017-05-21T12:38:17.230Z,51.17
2017-05-21T12:39:27.196Z,50.36
2017-05-21T12:40:37.157Z,49
2017-05-21T12:41:46.496Z,49.61
2017-05-21T12:42:56.154Z,49.54
2017-05-21T12:44:05.811Z,49.95
2017-05-21T12:45:15.789Z,48.02
2017-05-21T12:46:26.075Z,48.05
2017-05-21T12:47:36.042Z,47.83
2017-05-21T12:48:46.371Z,48.78
2017-05-21T12:49:56.034Z,48.78
2017-05-21T12:51:05.689Z,49.27
2017-05-21T12:52:15.974Z,47.39
2017-05-21T12:53:26.262Z,47.8
2017-05-21T12:54:36.559Z,47.53
2017-05-21T12:55:46.849Z,46.09
2017-05-21T12:56:56.190Z,44.34
2017-05-21T12:58:06.162Z,45.21
2017-05-21T12:59:15.829Z,45.23
2017-05-21T13:00:26.121Z,43.79
2017-05-21T13:01:36.407Z,43.59
2017-05-21T13:02:46.382Z,42.44
2017-05-21T13:03:56.045Z,42.91
2017-05-21T13:05:05.701Z,44.14
2017-05-21T13:06:15.983Z,44.04
2017-05-21T13:08:49.776Z,43.2
2017-05-21T13:10:00.066Z,42.91
2017-05-21T13:11:09.722Z,42.91
2017-05-21T13:12:20.005Z,43.52
2017-05-21T13:13:30.596Z,42.44
2017-05-21T13:14:40.571Z,42.17
2017-05-21T13:15:50.547Z,41.41
2017-05-21T13:17:00.826Z,41.33
2017-05-21T13:18:10.800Z,40.35
2017-05-21T13:19:24.591Z,38.9
2017-05-21T13:20:34.567Z,39.19
2017-05-21T13:21:44.227Z,39.59
2017-05-21T13:22:54.194Z,39.41
2017-05-21T13:24:03.851Z,37.27
2017-05-21T13:25:13.395Z,38.25
2017-05-21T13:26:23.368Z,38.27
2017-05-21T13:27:33.339Z,37.68
2017-05-21T13:28:43.622Z,37.19
2017-05-21T13:29:52.973Z,36.99
2017-05-21T13:31:03.263Z,36.9
2017-05-21T13:32:13.236Z,37.48
2017-05-21T13:33:23.528Z,36.9
2017-05-21T13:34:33.816Z,35.91
2017-05-21T13:35:43.163Z,37.19
2017-05-21T13:36:53.135Z,36.9
2017-05-21T13:38:03.427Z,36.42
2017-05-21T13:39:13.404Z,35.72
2017-05-21T13:40:23.386Z,35.54
2017-05-21T13:41:33.360Z,35.14
2017-05-21T13:42:43.330Z,33.87
2017-05-21T13:43:52.994Z,32.87
2017-05-21T13:45:03.286Z,35.03
2017-05-21T13:46:12.987Z,35.42
2017-05-21T13:47:22.644Z,33.77
2017-05-21T13:48:32.933Z,33.95
2017-05-21T13:49:43.213Z,34.34
2017-05-21T13:50:53.501Z,35.03
2017-05-21T13:52:03.844Z,34.9
2017-05-21T13:53:13.820Z,35.47
2017-05-21T13:54:24.118Z,34.88
2017-05-21T13:55:33.776Z,35.35
2017-05-21T13:56:44.077Z,36.2
2017-05-21T13:57:53.419Z,37.71
2017-05-21T13:59:03.397Z,37.77
2017-05-21T14:00:13.676Z,39
2017-05-21T14:01:23.642Z,38.73
2017-05-21T14:02:36.962Z,38.65
2017-05-21T14:03:47.270Z,37.4
2017-05-21T14:04:56.621Z,38.28
2017-05-21T14:06:05.647Z,37.73
2017-05-21T14:07:15.622Z,38.12
2017-05-21T14:08:25.588Z,37.54
2017-05-21T14:09:34.926Z,37.06
2017-05-21T14:10:44.898Z,36.98
2017-05-21T14:11:55.187Z,37.87
2017-05-21T14:13:04.531Z,38.14
2017-05-21T14:14:14.500Z,39.18
2017-05-21T14:15:24.780Z,39.33
2017-05-21T14:16:33.821Z,39.59
2017-05-21T14:17:44.109Z,41.01
2017-05-21T14:18:54.090Z,41.01
2017-05-21T14:20:04.375Z,42.72
2017-05-21T14:21:14.342Z,42.9
2017-05-21T14:22:24.306Z,42.21
2017-05-21T14:23:34.587Z,43.65
2017-05-21T14:24:44.550Z,44.19
2017-05-21T14:25:53.571Z,44.75
2017-05-21T14:27:03.854Z,45.53
2017-05-21T14:28:13.509Z,47.16
2017-05-21T14:29:23.789Z,47.03
2017-05-21T14:30:33.771Z,47.98
2017-05-21T14:31:43.727Z,47.57
2017-05-21T14:32:53.908Z,48.74
2017-05-21T14:34:03.562Z,49
2017-05-21T14:35:13.208Z,49.65
2017-05-21T14:36:21.924Z,50.4
2017-05-21T14:37:31.281Z,50.31
2017-05-21T14:38:40.616Z,51.66
2017-05-21T14:39:50.900Z,50.98
2017-05-21T14:41:00.545Z,51.44
2017-05-21T14:42:10.511Z,52.12
2017-05-21T14:43:20.160Z,51.86
2017-05-21T14:44:29.807Z,52.53
2017-05-21T14:45:38.854Z,52.22
2017-05-21T14:46:47.904Z,52.89
2017-05-21T14:47:57.248Z,51.76
2017-05-21T14:49:07.531Z,50.74
2017-05-21T14:50:17.807Z,50.48
2017-05-21T14:51:28.078Z,48.69
2017-05-21T14:52:38.038Z,48.73
2017-05-21T14:53:48.001Z,48.54
2017-05-21T14:54:57.658Z,48.05
2017-05-21T14:56:06.996Z,47.18
2017-05-21T14:57:16.647Z,47.55
2017-05-21T14:58:26.925Z,48.03
2017-05-21T14:59:37.201Z,48.69
2017-05-21T15:00:46.853Z,49.44
2017-05-21T15:01:56.819Z,50.48
2017-05-21T15:03:06.781Z,50.19
2017-05-21T15:04:17.065Z,50.45
2017-05-21T15:05:27.345Z,51.13
2017-05-21T15:06:37.311Z,51.13